Time;durP1;ratioP1;P1;durP2;ratioP2;P2;SDS_P1;SDS_P2;PMS_P1;PMS_P2;Temp;Humidity;BMP_temperature;BMP_pressure;BME280_temperature;BME280_humidity;BME280_pressure;Samples;Min_cycle;Max_cycle;Signal;HPM_P1;HPM_P2
2022/04/03 00:01:56;;;;;;;5.70;2.42;;;0.30;99.90;;;;;;5104866;28;20563;-42
2022/04/03 00:04:24;;;;;;;7.03;1.95;;;0.20;99.90;;;;;;5105472;27;20044;-45
2022/04/03 00:06:49;;;;;;;5.50;2.00;;;0.20;99.90;;;;;;5104047;28;20036;-45
2022/04/03 00:09:15;;;;;;;4.88;1.70;;;0.20;99.90;;;;;;5104934;28;20031;-46
2022/04/03 00:11:41;;;;;;;4.65;2.05;;;0.20;99.90;;;;;;5099582;28;20050;-47
2022/04/03 00:14:07;;;;;;;3.63;2.00;;;0.10;99.90;;;;;;5101353;28;20050;-42
2022/04/03 00:16:35;;;;;;;4.30;1.90;;;0.10;99.90;;;;;;5102294;28;20035;-39
2022/04/03 00:19:00;;;;;;;3.55;2.03;;;0.10;99.90;;;;;;5104179;28;20035;-46
2022/04/03 00:21:26;;;;;;;7.75;2.13;;;0.10;99.90;;;;;;5106540;28;20046;-43
2022/04/03 00:23:52;;;;;;;4.45;1.98;;;0.10;99.90;;;;;;5101589;28;20040;-46
2022/04/03 00:26:17;;;;;;;6.10;2.05;;;0.10;99.90;;;;;;5108029;28;20104;-46
2022/04/03 00:28:43;;;;;;;6.20;2.03;;;0.10;99.90;;;;;;5106072;27;20031;-41
2022/04/03 00:31:11;;;;;;;4.30;1.90;;;0.00;99.90;;;;;;5102885;28;20035;-44
2022/04/03 00:33:37;;;;;;;5.18;2.00;;;0.00;99.90;;;;;;5100127;28;20043;-40
2022/04/03 00:36:03;;;;;;;4.70;2.30;;;0.00;99.90;;;;;;5104751;28;20035;-46
2022/04/03 00:38:29;;;;;;;4.13;1.88;;;0.00;99.90;;;;;;5108434;28;20032;-49
2022/04/03 00:40:56;;;;;;;5.50;1.90;;;0.00;99.90;;;;;;5105950;28;20447;-48
2022/04/03 00:43:21;;;;;;;4.00;1.90;;;0.00;99.90;;;;;;5105403;28;20163;-45
2022/04/03 00:45:48;;;;;;;5.47;2.03;;;0.00;99.90;;;;;;5100774;28;20035;-41
2022/04/03 00:48:14;;;;;;;4.32;1.75;;;-0.10;99.90;;;;;;5102570;28;20480;-46
2022/04/03 00:50:41;;;;;;;3.60;1.55;;;-0.10;99.90;;;;;;5106008;28;20132;-45
2022/04/03 00:53:07;;;;;;;4.97;1.90;;;-0.10;99.90;;;;;;5109064;28;20530;-47
2022/04/03 00:55:33;;;;;;;4.07;1.83;;;-0.10;99.90;;;;;;5107120;28;20040;-44
2022/04/03 00:57:59;;;;;;;3.47;1.67;;;-0.10;99.90;;;;;;5102444;28;20051;-45
2022/04/03 01:00:25;;;;;;;6.22;2.17;;;-0.10;99.90;;;;;;5106795;28;20050;-42
2022/04/03 01:02:50;;;;;;;6.30;2.00;;;0.00;99.90;;;;;;5107929;28;20123;-47
2022/04/03 01:05:16;;;;;;;3.50;1.70;;;0.00;99.90;;;;;;5105344;28;20051;-44
2022/04/03 01:07:43;;;;;;;4.50;1.90;;;0.10;99.90;;;;;;5108538;28;20036;-42
2022/04/03 01:10:09;;;;;;;4.63;2.05;;;0.10;99.90;;;;;;5108399;28;20499;-44
2022/04/03 01:12:44;;;;;;;3.08;1.30;;;0.20;99.90;;;;;;5108010;28;20031;-44
2022/04/03 01:15:12;;;;;;;2.15;1.27;;;0.20;99.90;;;;;;5105578;28;20036;-44
2022/04/03 01:17:38;;;;;;;5.97;1.65;;;0.30;99.90;;;;;;5105851;28;20110;-45
2022/04/03 01:20:04;;;;;;;4.95;1.90;;;0.30;99.90;;;;;;5103292;28;20594;-44
2022/04/03 01:22:30;;;;;;;3.70;1.55;;;0.40;99.90;;;;;;5108683;28;20110;-48
2022/04/03 01:24:56;;;;;;;3.58;1.80;;;0.40;99.90;;;;;;5098784;28;20124;-46
2022/04/03 01:27:22;;;;;;;4.93;1.67;;;0.50;99.90;;;;;;5100428;28;20341;-45
2022/04/03 01:29:52;;;;;;;4.15;1.02;;;0.50;99.90;;;;;;5105696;28;20134;-40
2022/04/03 01:32:19;;;;;;;3.45;1.65;;;0.60;99.90;;;;;;5097291;28;20046;-42
2022/04/03 01:34:45;;;;;;;4.38;1.65;;;0.60;99.90;;;;;;5104554;28;20035;-48
2022/04/03 01:37:11;;;;;;;3.15;1.38;;;0.60;99.90;;;;;;5105576;28;20427;-43
2022/04/03 01:39:36;;;;;;;3.90;1.85;;;0.70;99.90;;;;;;5107991;28;20043;-42
2022/04/03 01:42:03;;;;;;;4.53;2.13;;;0.70;99.90;;;;;;5105935;28;20131;-45
2022/04/03 01:44:29;;;;;;;3.47;1.30;;;0.70;99.90;;;;;;5108199;28;20174;-47
2022/04/03 01:46:54;;;;;;;2.83;1.40;;;0.80;99.90;;;;;;5105321;28;20035;-45
2022/04/03 01:49:20;;;;;;;3.13;1.52;;;0.80;99.90;;;;;;5100693;28;20028;-47
2022/04/03 01:51:46;;;;;;;4.13;1.70;;;0.80;99.90;;;;;;5099096;28;20061;-44
2022/04/03 01:54:11;;;;;;;2.72;1.20;;;0.90;99.90;;;;;;5105370;28;20172;-45
2022/04/03 01:56:38;;;;;;;3.92;1.40;;;0.90;99.90;;;;;;5104963;28;20058;-45
2022/04/03 01:59:04;;;;;;;2.70;1.15;;;0.90;99.90;;;;;;5097281;28;20475;-46
2022/04/03 02:01:31;;;;;;;3.55;1.92;;;0.90;99.90;;;;;;5099832;28;20060;-46
2022/04/03 02:03:57;;;;;;;3.13;1.65;;;1.00;99.90;;;;;;5106015;28;20105;-44
2022/04/03 02:06:23;;;;;;;2.42;1.10;;;1.00;99.90;;;;;;5106826;27;20040;-43
2022/04/03 02:08:48;;;;;;;2.75;1.27;;;1.10;99.90;;;;;;5111374;28;20039;-47
2022/04/03 02:11:15;;;;;;;5.03;1.73;;;1.10;99.90;;;;;;5110254;28;20032;-45
2022/04/03 02:13:41;;;;;;;2.88;1.27;;;1.10;99.90;;;;;;5110726;28;20044;-38
2022/04/03 02:16:06;;;;;;;2.38;1.30;;;1.10;99.90;;;;;;5109932;28;20031;-45
2022/04/03 02:18:32;;;;;;;3.42;1.40;;;1.20;99.90;;;;;;5108163;28;20060;-43
2022/04/03 02:20:58;;;;;;;3.75;1.70;;;1.20;99.90;;;;;;5108374;28;20040;-45
2022/04/03 02:23:23;;;;;;;4.40;1.75;;;1.20;99.90;;;;;;5109264;28;20054;-47
2022/04/03 02:25:50;;;;;;;1.83;0.80;;;1.20;99.90;;;;;;5100832;28;20124;-44
2022/04/03 02:28:17;;;;;;;4.70;1.63;;;1.30;99.90;;;;;;5107102;28;20052;-44
2022/04/03 02:30:42;;;;;;;3.42;1.58;;;1.30;99.90;;;;;;5107027;28;20078;-41
2022/04/03 02:33:08;;;;;;;3.83;1.63;;;1.30;99.90;;;;;;5109363;28;20070;-44
2022/04/03 02:35:34;;;;;;;3.28;1.50;;;1.30;99.90;;;;;;5108993;28;20118;-46
2022/04/03 02:38:00;;;;;;;3.83;1.52;;;1.40;99.90;;;;;;5105766;28;20042;-45
2022/04/03 02:40:26;;;;;;;4.75;1.52;;;1.40;99.90;;;;;;5105314;28;20342;-45
2022/04/03 02:42:54;;;;;;;3.30;1.90;;;1.40;99.90;;;;;;5103207;28;20046;-48
2022/04/03 02:45:20;;;;;;;3.17;1.52;;;1.50;99.90;;;;;;5101436;28;20032;-45
2022/04/03 02:47:54;;;;;;;3.85;1.58;;;1.50;99.90;;;;;;5105626;28;20039;-45
2022/04/03 02:50:24;;;;;;;5.40;1.50;;;1.50;99.90;;;;;;5110339;28;20032;-42
2022/04/03 02:52:51;;;;;;;2.40;0.95;;;1.50;99.90;;;;;;5106326;27;20119;-45
2022/04/03 02:55:18;;;;;;;2.38;1.30;;;1.50;99.90;;;;;;5110273;28;20039;-46
2022/04/03 02:57:44;;;;;;;3.33;1.30;;;1.50;99.90;;;;;;5107835;28;20361;-43
2022/04/03 03:00:17;;;;;;;3.28;1.70;;;1.60;99.90;;;;;;5105724;28;20100;-46
2022/04/03 03:02:44;;;;;;;3.33;1.20;;;1.60;99.90;;;;;;5104166;28;20039;-41
2022/04/03 03:05:12;;;;;;;3.90;1.33;;;1.60;99.90;;;;;;5110545;28;20072;-47
2022/04/03 03:07:39;;;;;;;3.17;1.55;;;1.60;99.90;;;;;;5107659;28;20044;-43
2022/04/03 03:10:06;;;;;;;4.90;1.30;;;1.60;99.90;;;;;;5107746;28;20547;-44
2022/04/03 03:12:32;;;;;;;2.78;1.42;;;1.60;99.90;;;;;;5110991;28;20126;-44
2022/04/03 03:14:58;;;;;;;4.15;1.50;;;1.60;99.90;;;;;;5100767;28;20121;-44
2022/04/03 03:17:23;;;;;;;2.83;1.33;;;1.60;99.90;;;;;;5108168;28;20039;-42
2022/04/03 03:19:49;;;;;;;3.05;1.02;;;1.60;99.90;;;;;;5108477;28;20034;-43
2022/04/03 03:22:15;;;;;;;1.65;0.82;;;1.60;99.90;;;;;;5104250;28;20036;-44
2022/04/03 03:24:41;;;;;;;3.10;1.13;;;1.60;99.90;;;;;;5103537;28;20036;-42
2022/04/03 03:27:06;;;;;;;3.85;1.40;;;1.60;99.90;;;;;;5105125;28;20118;-43
2022/04/03 03:29:32;;;;;;;3.25;1.20;;;1.60;99.90;;;;;;5102977;28;20151;-44
2022/04/03 03:31:58;;;;;;;8.35;2.53;;;1.60;99.90;;;;;;5105542;27;20070;-43
2022/04/03 03:34:23;;;;;;;5.07;1.77;;;1.60;99.90;;;;;;5107843;28;20122;-43
2022/04/03 03:36:49;;;;;;;4.70;2.05;;;1.60;99.90;;;;;;5109568;28;20075;-42
2022/04/03 03:39:16;;;;;;;3.33;1.75;;;1.60;99.90;;;;;;5108092;28;20061;-41
2022/04/03 03:41:42;;;;;;;4.00;1.67;;;1.60;99.90;;;;;;5106155;28;20496;-43
2022/04/03 03:44:10;;;;;;;2.30;1.20;;;1.50;99.90;;;;;;5106190;28;20051;-42
2022/04/03 03:46:40;;;;;;;3.83;1.70;;;1.50;99.90;;;;;;5105726;27;20480;-45
2022/04/03 03:49:07;;;;;;;4.18;1.70;;;1.50;99.90;;;;;;5099009;28;20088;-44
2022/04/03 03:51:36;;;;;;;4.70;1.40;;;1.50;99.90;;;;;;5105866;27;20032;-45
2022/04/03 03:54:03;;;;;;;3.65;1.70;;;1.50;99.90;;;;;;5106611;28;20050;-41
2022/04/03 03:56:29;;;;;;;4.88;1.70;;;1.50;99.90;;;;;;5103879;28;20028;-41
2022/04/03 03:58:54;;;;;;;2.88;1.58;;;1.50;99.90;;;;;;5102654;28;20035;-45
2022/04/03 04:01:22;;;;;;;3.70;1.45;;;1.50;99.90;;;;;;5106001;28;20468;-47
2022/04/03 04:03:48;;;;;;;2.97;1.80;;;1.50;99.90;;;;;;5106158;28;20043;-47
2022/04/03 04:06:14;;;;;;;5.80;1.70;;;1.40;99.90;;;;;;5102849;28;20126;-42
2022/04/03 04:08:40;;;;;;;4.07;1.35;;;1.40;99.90;;;;;;5108590;28;20046;-45
2022/04/03 04:11:06;;;;;;;4.32;1.33;;;1.30;99.90;;;;;;5104544;28;20040;-48
2022/04/03 04:13:32;;;;;;;3.35;1.33;;;1.30;99.90;;;;;;5100192;28;20058;-48
2022/04/03 04:15:58;;;;;;;3.30;1.15;;;1.20;99.90;;;;;;5109599;28;20075;-47
2022/04/03 04:18:24;;;;;;;3.67;1.33;;;1.20;99.90;;;;;;5107670;28;20040;-45
2022/04/03 04:20:53;;;;;;;6.55;1.63;;;1.20;99.90;;;;;;5102261;28;20068;-44
2022/04/03 04:23:19;;;;;;;3.03;1.00;;;1.10;99.90;;;;;;5103547;27;20046;-41
2022/04/03 04:25:45;;;;;;;2.38;0.82;;;1.10;99.90;;;;;;5108314;28;20042;-45
2022/04/03 04:28:12;;;;;;;4.70;0.93;;;1.00;99.90;;;;;;5101565;28;20055;-41
2022/04/03 04:30:38;;;;;;;3.75;1.10;;;1.00;99.90;;;;;;5107247;28;20114;-44
2022/04/03 04:33:06;;;;;;;3.40;0.80;;;1.00;99.90;;;;;;5107811;28;20554;-42
2022/04/03 04:35:31;;;;;;;4.50;0.77;;;0.90;99.90;;;;;;5104420;28;20051;-45
2022/04/03 04:37:57;;;;;;;5.00;0.90;;;0.80;99.90;;;;;;5105005;28;20512;-47
2022/04/03 04:40:23;;;;;;;4.65;0.88;;;0.80;99.90;;;;;;5104315;28;20042;-47
2022/04/03 04:42:49;;;;;;;3.50;0.85;;;0.80;99.90;;;;;;5106041;28;20100;-45
2022/04/03 04:45:15;;;;;;;2.08;0.70;;;0.70;99.90;;;;;;5098034;28;20136;-44
2022/04/03 04:47:42;;;;;;;2.65;1.08;;;0.70;99.90;;;;;;5102936;27;20032;-45
2022/04/03 04:50:10;;;;;;;3.42;0.95;;;0.70;99.90;;;;;;5103361;28;20032;-44
2022/04/03 04:52:38;;;;;;;3.17;0.88;;;0.60;99.90;;;;;;5108560;28;20037;-43
2022/04/03 04:55:06;;;;;;;2.83;0.73;;;0.60;99.90;;;;;;5105763;28;20365;-43
2022/04/03 04:57:36;;;;;;;3.20;1.10;;;0.60;99.90;;;;;;5106452;28;20041;-46
2022/04/03 05:00:06;;;;;;;1.70;0.57;;;0.50;99.90;;;;;;5108482;28;20396;-44
2022/04/03 05:02:32;;;;;;;1.90;0.63;;;0.40;99.90;;;;;;5105856;28;20036;-43
2022/04/03 05:04:57;;;;;;;1.83;0.77;;;0.40;99.90;;;;;;5103460;28;20108;-46
2022/04/03 05:07:23;;;;;;;3.30;0.68;;;0.30;99.90;;;;;;5104806;28;20039;-43
2022/04/03 05:09:50;;;;;;;3.50;0.60;;;0.30;99.90;;;;;;5101299;28;20039;-42
2022/04/03 05:12:16;;;;;;;1.80;0.80;;;0.30;99.90;;;;;;5101681;28;20386;-47
2022/04/03 05:14:42;;;;;;;3.25;0.90;;;0.20;99.90;;;;;;5103918;28;20051;-44
2022/04/03 05:17:08;;;;;;;3.00;0.60;;;0.20;99.90;;;;;;5107118;28;20067;-46
2022/04/03 05:19:36;;;;;;;1.88;0.65;;;0.20;99.90;;;;;;5103067;28;20048;-47
2022/04/03 05:22:02;;;;;;;2.13;0.70;;;0.20;99.90;;;;;;5107529;28;20534;-46
2022/04/03 05:24:28;;;;;;;2.10;1.02;;;0.30;99.90;;;;;;5105575;28;20416;-44
2022/04/03 05:26:54;;;;;;;1.52;0.50;;;0.30;99.90;;;;;;5097248;28;20035;-44
2022/04/03 05:29:20;;;;;;;1.40;0.60;;;0.30;99.90;;;;;;5103969;28;20081;-47
2022/04/03 05:31:45;;;;;;;2.22;0.75;;;0.40;99.90;;;;;;5098056;28;20044;-45
2022/04/03 05:34:11;;;;;;;1.70;0.50;;;0.40;99.90;;;;;;5107128;28;20030;-42
2022/04/03 05:36:37;;;;;;;1.77;0.75;;;0.40;99.90;;;;;;5108712;28;20027;-44
2022/04/03 05:39:04;;;;;;;2.60;0.70;;;0.40;99.90;;;;;;5110156;27;20081;-46
2022/04/03 05:41:33;;;;;;;4.15;1.05;;;0.40;99.90;;;;;;5108179;28;20039;-45
2022/04/03 05:44:00;;;;;;;3.80;0.80;;;0.40;99.90;;;;;;5110889;28;20039;-41
2022/04/03 05:46:25;;;;;;;1.35;0.40;;;0.40;99.90;;;;;;5104342;28;20467;-49
2022/04/03 05:48:51;;;;;;;2.30;0.65;;;0.40;99.90;;;;;;5111861;28;20043;-45
2022/04/03 05:51:17;;;;;;;2.15;0.55;;;0.40;99.90;;;;;;5108167;28;20035;-44
2022/04/03 05:53:43;;;;;;;4.65;1.13;;;0.40;99.90;;;;;;5112703;28;20480;-43
2022/04/03 05:56:09;;;;;;;3.45;1.08;;;0.40;99.90;;;;;;5104596;28;20035;-45
2022/04/03 05:58:35;;;;;;;2.17;1.10;;;0.40;99.90;;;;;;5106611;28;20044;-43
2022/04/03 06:01:01;;;;;;;3.03;1.10;;;0.40;99.90;;;;;;5100976;28;20040;-43
2022/04/03 06:03:27;;;;;;;2.42;1.02;;;0.40;99.90;;;;;;5111895;28;20054;-42
2022/04/03 06:05:52;;;;;;;2.13;0.98;;;0.40;99.90;;;;;;5103160;28;20545;-41
2022/04/03 06:08:18;;;;;;;3.72;1.10;;;0.40;99.90;;;;;;5112524;28;20426;-45
2022/04/03 06:10:44;;;;;;;1.83;0.80;;;0.40;99.90;;;;;;5105052;27;20392;-46
2022/04/03 06:13:14;;;;;;;2.50;1.35;;;0.40;99.90;;;;;;5109348;28;20040;-42
2022/04/03 06:15:42;;;;;;;4.18;1.40;;;0.40;99.90;;;;;;5110640;28;20040;-45
2022/04/03 06:18:12;;;;;;;3.78;1.52;;;0.40;99.90;;;;;;5110013;27;20043;-44
2022/04/03 06:20:38;;;;;;;4.75;1.70;;;0.50;99.90;;;;;;5101204;27;20046;-45
2022/04/03 06:23:30;;;;;;;4.07;1.58;;;0.50;99.90;;;;;;5109918;27;20043;-47
2022/04/03 06:25:57;;;;;;;5.40;1.67;;;0.50;99.90;;;;;;5103740;28;20048;-45
2022/04/03 06:28:23;;;;;;;3.65;1.90;;;0.50;99.90;;;;;;5111119;28;20054;-44
2022/04/03 06:30:49;;;;;;;4.60;1.65;;;0.60;99.90;;;;;;5110933;28;20040;-46
2022/04/03 06:33:16;;;;;;;3.08;1.42;;;0.60;99.90;;;;;;5104878;28;20119;-45
2022/04/03 06:35:43;;;;;;;4.38;1.95;;;0.60;99.90;;;;;;5110698;28;20051;-41
2022/04/03 06:38:09;;;;;;;4.68;1.85;;;0.60;99.90;;;;;;5103244;28;20171;-43
2022/04/03 06:40:37;;;;;;;3.78;1.88;;;0.70;99.90;;;;;;5107854;28;20036;-41
2022/04/03 06:43:03;;;;;;;3.78;1.55;;;0.80;99.90;;;;;;5104097;28;20111;-42
2022/04/03 06:45:29;;;;;;;6.80;2.13;;;0.90;99.90;;;;;;5099709;28;20123;-43
2022/04/03 06:47:57;;;;;;;3.42;1.58;;;1.00;99.90;;;;;;5107916;28;20118;-46
2022/04/03 06:50:23;;;;;;;3.28;1.67;;;1.10;99.90;;;;;;5106112;28;20063;-45
2022/04/03 06:52:49;;;;;;;3.70;1.73;;;1.20;99.90;;;;;;5105308;28;20107;-44
2022/04/03 06:55:14;;;;;;;7.38;2.10;;;1.30;99.90;;;;;;5111323;28;20607;-43
2022/04/03 06:57:41;;;;;;;4.68;1.67;;;1.50;99.90;;;;;;5107846;28;20043;-42
2022/04/03 07:00:08;;;;;;;4.32;1.58;;;1.60;99.90;;;;;;5103971;28;20515;-47
2022/04/03 07:02:34;;;;;;;7.43;1.88;;;1.70;99.90;;;;;;5110010;28;20087;-44
2022/04/03 07:05:01;;;;;;;8.80;1.70;;;1.80;99.90;;;;;;5106708;28;20047;-42
2022/04/03 07:07:26;;;;;;;5.60;2.10;;;1.90;99.90;;;;;;5107507;28;20545;-44
2022/04/03 07:09:53;;;;;;;3.20;1.52;;;2.00;99.90;;;;;;5103369;28;20043;-45
2022/04/03 07:12:20;;;;;;;7.28;2.88;;;2.00;99.90;;;;;;5103551;28;20035;-43
2022/04/03 07:14:45;;;;;;;3.25;1.60;;;2.10;99.90;;;;;;5105572;28;20079;-45
2022/04/03 07:17:11;;;;;;;2.10;1.13;;;2.30;99.90;;;;;;5105583;28;20070;-46
2022/04/03 07:19:37;;;;;;;2.63;1.10;;;2.40;99.90;;;;;;5123833;27;20446;-46
2022/04/03 07:22:03;;;;;;;1.40;0.43;;;2.60;99.90;;;;;;5117829;27;20047;-44
2022/04/03 07:24:29;;;;;;;2.83;0.50;;;2.90;99.90;;;;;;5108330;28;20119;-46
2022/04/03 07:26:55;;;;;;;1.55;0.50;;;3.20;99.90;;;;;;5103396;28;20122;-43
2022/04/03 07:29:22;;;;;;;1.85;0.47;;;3.40;99.90;;;;;;5106548;27;20070;-47
2022/04/03 07:31:48;;;;;;;2.13;0.60;;;3.60;99.90;;;;;;5106151;27;20027;-45
2022/04/03 07:34:14;;;;;;;1.27;0.60;;;3.70;99.90;;;;;;5100604;28;20101;-45
2022/04/03 07:36:40;;;;;;;4.72;0.60;;;3.80;99.90;;;;;;5108688;28;20575;-45
2022/04/03 07:39:06;;;;;;;0.98;0.45;;;3.90;99.90;;;;;;5108186;28;20084;-42
2022/04/03 07:41:31;;;;;;;3.60;0.68;;;4.00;99.90;;;;;;5107093;28;20032;-42
2022/04/03 07:43:57;;;;;;;3.17;0.65;;;4.00;99.90;;;;;;5104967;28;20035;-43
2022/04/03 07:46:22;;;;;;;3.88;0.70;;;4.00;99.90;;;;;;5106328;28;20044;-43
2022/04/03 07:48:48;;;;;;;1.92;0.60;;;4.10;99.90;;;;;;5103818;28;20067;-44
2022/04/03 07:51:14;;;;;;;2.97;0.57;;;4.20;99.90;;;;;;5105768;28;20035;-42
2022/04/03 07:53:39;;;;;;;2.92;0.70;;;4.20;99.90;;;;;;5103746;28;20036;-44
2022/04/03 07:56:06;;;;;;;2.17;0.50;;;4.20;99.90;;;;;;5104457;28;20053;-42
2022/04/03 07:58:33;;;;;;;2.60;0.70;;;4.30;99.90;;;;;;5104019;28;20518;-44
2022/04/03 08:01:00;;;;;;;7.32;0.70;;;4.50;99.90;;;;;;5108858;28;20035;-45
2022/04/03 08:03:26;;;;;;;2.28;0.52;;;4.60;99.90;;;;;;5100104;28;20062;-41
2022/04/03 08:05:56;;;;;;;1.85;0.50;;;4.80;99.90;;;;;;5106458;28;20090;-44
2022/04/03 08:08:21;;;;;;;4.90;0.80;;;5.00;99.90;;;;;;5097675;28;20036;-44
2022/04/03 08:10:50;;;;;;;1.90;0.43;;;5.10;99.90;;;;;;5099995;28;20039;-45
2022/04/03 08:13:16;;;;;;;1.52;0.50;;;5.30;99.90;;;;;;5105600;28;20035;-41
2022/04/03 08:15:42;;;;;;;2.20;0.77;;;5.40;99.90;;;;;;5099556;28;20440;-45
2022/04/03 08:18:08;;;;;;;2.28;0.45;;;5.50;99.90;;;;;;5109447;28;20460;-46
2022/04/03 08:20:33;;;;;;;2.38;0.35;;;5.70;99.90;;;;;;5106679;28;20411;-45
2022/04/03 08:23:03;;;;;;;3.45;0.40;;;5.80;99.90;;;;;;5099032;28;20126;-47
2022/04/03 08:25:30;;;;;;;4.00;0.30;;;6.00;99.90;;;;;;5102792;28;20456;-43
2022/04/03 08:27:56;;;;;;;3.83;0.40;;;6.10;99.90;;;;;;5106791;28;20044;-45
2022/04/03 08:30:33;;;;;;;3.72;0.68;;;6.10;99.90;;;;;;5105569;28;20039;-47
2022/04/03 08:33:00;;;;;;;4.35;0.60;;;6.00;99.90;;;;;;5104332;28;20488;-45
2022/04/03 08:35:28;;;;;;;3.25;0.40;;;5.90;99.90;;;;;;5101044;28;20039;-45
2022/04/03 08:37:55;;;;;;;0.70;0.25;;;5.80;99.90;;;;;;5104972;28;20031;-43
2022/04/03 08:40:24;;;;;;;4.00;0.40;;;5.70;99.90;;;;;;5102917;28;20039;-46
2022/04/03 08:42:52;;;;;;;1.52;0.20;;;5.50;99.90;;;;;;5104334;28;20036;-46
2022/04/03 08:45:18;;;;;;;2.75;1.13;;;5.30;99.90;;;;;;5096208;28;20254;-38
2022/04/03 08:47:53;;;;;;;0.90;0.30;;;5.30;99.90;;;;;;5105078;28;20038;-44
2022/04/03 08:50:23;;;;;;;3.13;0.25;;;5.50;99.90;;;;;;5101233;28;20059;-48
2022/04/03 08:52:51;;;;;;;1.95;0.70;;;5.80;99.90;;;;;;5102194;28;20081;-42
2022/04/03 08:55:19;;;;;;;1.20;0.30;;;5.80;99.90;;;;;;5101481;28;20488;-47
2022/04/03 08:57:45;;;;;;;2.67;0.30;;;5.90;99.90;;;;;;5103449;28;20032;-46
2022/04/03 09:00:14;;;;;;;0.75;0.20;;;6.10;99.90;;;;;;5097790;28;20527;-46
2022/04/03 09:02:46;;;;;;;0.90;0.30;;;6.30;99.90;;;;;;5107628;28;20036;-45
2022/04/03 09:05:12;;;;;;;1.45;0.40;;;6.50;99.90;;;;;;5101441;28;20444;-43
2022/04/03 09:07:38;;;;;;;2.67;0.38;;;6.70;99.90;;;;;;5107369;28;20074;-45
2022/04/03 09:10:10;;;;;;;3.10;0.30;;;6.90;99.70;;;;;;5102875;28;20043;-44
2022/04/03 09:12:49;;;;;;;2.05;0.43;;;7.10;98.60;;;;;;5103730;28;20465;-43
2022/04/03 09:15:20;;;;;;;2.10;0.82;;;7.10;96.80;;;;;;5093056;28;20047;-49
2022/04/03 09:17:52;;;;;;;1.43;0.30;;;7.00;96.80;;;;;;5068220;28;20512;-47
2022/04/03 09:20:32;;;;;;;1.05;0.30;;;6.80;96.60;;;;;;5068025;28;20036;-42
2022/04/03 09:23:04;;;;;;;3.70;0.85;;;6.70;96.80;;;;;;5069476;28;20036;-46
2022/04/03 09:25:32;;;;;;;1.88;0.30;;;6.80;96.50;;;;;;5062161;28;20564;-46
2022/04/03 09:28:03;;;;;;;1.58;0.20;;;6.90;95.80;;;;;;5066976;28;20416;-47
2022/04/03 09:30:31;;;;;;;0.82;0.17;;;7.00;94.90;;;;;;5068545;28;20078;-46
2022/04/03 09:32:59;;;;;;;0.32;0.20;;;7.00;94.10;;;;;;5064829;28;20561;-46
2022/04/03 09:35:52;;;;;;;1.35;0.30;;;7.00;93.10;;;;;;5084932;28;20086;-45
2022/04/03 09:38:18;;;;;;;1.15;0.20;;;7.10;93.40;;;;;;5056263;28;20481;-47
2022/04/03 09:40:49;;;;;;;1.27;0.22;;;7.40;92.80;;;;;;5060914;28;20494;-46
2022/04/03 09:43:31;;;;;;;0.93;0.30;;;7.60;90.90;;;;;;5066219;28;20075;-47
2022/04/03 09:46:04;;;;;;;2.53;0.20;;;7.80;87.80;;;;;;5066629;28;20135;-43
2022/04/03 09:48:40;;;;;;;0.63;0.22;;;7.90;86.90;;;;;;5086615;28;20040;-49
2022/04/03 09:51:07;;;;;;;2.17;0.55;;;8.10;85.20;;;;;;5075963;28;20055;-48
2022/04/03 09:53:46;;;;;;;1.98;0.38;;;8.40;84.90;;;;;;5070119;28;20043;-46
2022/04/03 09:56:24;;;;;;;2.15;0.40;;;8.70;82.20;;;;;;5067437;28;20036;-46
2022/04/03 09:58:50;;;;;;;1.15;0.20;;;8.80;77.60;;;;;;5068202;28;20047;-44
2022/04/03 10:01:29;;;;;;;3.22;0.20;;;8.70;79.30;;;;;;5073350;28;20036;-46
2022/04/03 10:03:57;;;;;;;1.70;0.20;;;8.60;76.00;;;;;;5061516;28;20083;-44
2022/04/03 10:06:24;;;;;;;1.63;0.30;;;8.50;77.00;;;;;;5045191;28;20048;-46
2022/04/03 10:08:50;;;;;;;1.05;0.40;;;8.40;78.40;;;;;;5064153;28;20049;-50
2022/04/03 10:11:16;;;;;;;0.90;0.30;;;8.60;77.70;;;;;;5062256;28;20089;-45
2022/04/03 10:13:46;;;;;;;0.40;0.20;;;8.70;77.20;;;;;;5071728;28;20545;-43
2022/04/03 10:16:12;;;;;;;2.95;0.60;;;8.90;76.90;;;;;;5072199;28;20544;-44
2022/04/03 10:18:39;;;;;;;1.25;0.20;;;9.00;76.10;;;;;;5072343;28;20398;-42
2022/04/03 10:21:11;;;;;;;1.38;0.30;;;8.70;75.10;;;;;;5065581;28;20029;-42
2022/04/03 10:23:39;;;;;;;1.85;0.28;;;8.50;78.50;;;;;;5063614;28;20129;-45
2022/04/03 10:26:06;;;;;;;1.83;0.30;;;8.30;80.60;;;;;;5067928;28;20598;-42
2022/04/03 10:28:35;;;;;;;1.45;0.50;;;8.00;80.60;;;;;;5064086;28;20037;-42
2022/04/03 10:31:07;;;;;;;1.05;0.20;;;7.60;80.30;;;;;;5064445;28;20486;-45
2022/04/03 10:33:42;;;;;;;0.75;0.30;;;7.60;83.20;;;;;;5062989;28;20044;-45
2022/04/03 10:36:13;;;;;;;1.77;0.30;;;7.90;83.70;;;;;;5067420;28;20056;-45
2022/04/03 10:38:55;;;;;;;4.10;0.95;;;8.20;82.40;;;;;;5065059;28;20040;-40
2022/04/03 10:41:31;;;;;;;1.67;0.30;;;8.40;79.40;;;;;;5067556;28;20102;-43
2022/04/03 10:44:18;;;;;;;1.48;0.30;;;8.60;76.60;;;;;;5070266;28;20160;-43
2022/04/03 10:47:04;;;;;;;1.42;0.30;;;8.60;76.40;;;;;;5057160;28;20048;-43
2022/04/03 10:49:36;;;;;;;1.17;0.40;;;8.50;75.50;;;;;;5066438;28;20481;-45
2022/04/03 10:52:09;;;;;;;2.67;0.57;;;8.30;75.40;;;;;;5069608;28;20127;-45
2022/04/03 10:54:50;;;;;;;2.45;0.40;;;8.20;77.30;;;;;;5064328;28;20044;-48
2022/04/03 10:57:35;;;;;;;1.13;0.30;;;8.10;77.20;;;;;;5067160;28;20037;-46
2022/04/03 11:00:27;;;;;;;1.33;0.28;;;8.20;74.80;;;;;;5067489;28;20533;-45
2022/04/03 11:03:19;;;;;;;1.65;0.65;;;8.50;74.50;;;;;;5059322;28;20049;-43
2022/04/03 11:05:48;;;;;;;1.88;0.30;;;8.80;75.20;;;;;;5063962;28;20493;-43
2022/04/03 11:08:17;;;;;;;1.85;0.50;;;8.90;77.40;;;;;;5069313;28;20036;-43
2022/04/03 11:10:53;;;;;;;3.78;0.45;;;8.80;82.70;;;;;;5063070;28;20043;-45
2022/04/03 11:13:39;;;;;;;1.08;0.43;;;8.70;84.00;;;;;;5064924;28;20048;-46
2022/04/03 11:16:10;;;;;;;0.98;0.50;;;8.70;86.30;;;;;;5073616;28;20602;-43
2022/04/03 11:18:52;;;;;;;1.98;0.40;;;8.50;86.60;;;;;;5067159;28;20729;-45
2022/04/03 11:21:28;;;;;;;1.80;0.70;;;8.60;90.10;;;;;;5067308;28;20543;-46
2022/04/03 11:24:15;;;;;;;1.25;0.30;;;8.70;88.80;;;;;;5070093;28;20040;-44
2022/04/03 11:26:43;;;;;;;0.43;0.22;;;8.50;85.00;;;;;;5069004;28;20084;-44
2022/04/03 11:29:10;;;;;;;0.68;0.28;;;8.30;81.80;;;;;;5072164;28;20039;-48
2022/04/03 11:31:36;;;;;;;1.60;0.50;;;8.10;84.60;;;;;;5063907;28;20037;-45
2022/04/03 11:34:02;;;;;;;2.45;0.65;;;7.90;88.30;;;;;;5072074;28;20059;-46
2022/04/03 11:36:30;;;;;;;1.75;0.70;;;7.90;90.10;;;;;;5066160;28;20041;-46
2022/04/03 11:38:56;;;;;;;2.15;0.80;;;8.10;91.90;;;;;;5071205;28;20036;-45
2022/04/03 11:41:37;;;;;;;2.92;0.40;;;8.40;90.60;;;;;;5067555;28;20059;-43
2022/04/03 11:44:09;;;;;;;0.82;0.30;;;8.60;84.80;;;;;;5074859;28;20036;-44
2022/04/03 11:46:41;;;;;;;3.72;0.30;;;8.60;76.90;;;;;;5074076;28;20482;-44
2022/04/03 11:49:18;;;;;;;1.70;0.30;;;8.60;75.40;;;;;;5069438;28;20047;-49
2022/04/03 11:51:46;;;;;;;3.10;0.40;;;8.60;76.30;;;;;;5065421;28;20045;-46
2022/04/03 11:54:15;;;;;;;0.77;0.30;;;8.40;81.20;;;;;;5078665;28;20032;-44
2022/04/03 11:56:40;;;;;;;1.00;0.30;;;8.30;81.70;;;;;;5068680;28;20044;-43
2022/04/03 11:59:09;;;;;;;1.67;0.35;;;8.10;81.80;;;;;;5080989;28;20040;-49
2022/04/03 12:01:38;;;;;;;2.40;0.47;;;8.00;82.50;;;;;;5068915;28;20043;-46
2022/04/03 12:04:13;;;;;;;0.85;0.38;;;8.00;82.60;;;;;;5073807;28;20057;-44
2022/04/03 12:06:42;;;;;;;1.40;0.40;;;7.90;82.50;;;;;;5078273;28;20493;-44
2022/04/03 12:09:15;;;;;;;1.85;0.50;;;7.90;86.30;;;;;;5074591;28;20438;-44
2022/04/03 12:11:48;;;;;;;1.00;0.50;;;7.90;86.60;;;;;;5074134;28;20036;-43
2022/04/03 12:14:31;;;;;;;2.38;0.43;;;7.80;87.60;;;;;;5070171;28;20523;-47
2022/04/03 12:17:02;;;;;;;1.67;0.30;;;7.80;88.60;;;;;;5067732;28;20086;-48
2022/04/03 12:19:30;;;;;;;0.73;0.25;;;7.80;89.30;;;;;;5068628;28;20036;-43
2022/04/03 12:21:57;;;;;;;0.98;0.30;;;7.80;85.20;;;;;;5060189;28;20408;-46
2022/04/03 12:24:24;;;;;;;2.72;0.47;;;7.80;84.40;;;;;;5072408;28;20059;-42
2022/04/03 12:27:01;;;;;;;3.05;0.40;;;7.90;84.40;;;;;;5068500;28;20051;-44
2022/04/03 12:29:29;;;;;;;0.52;0.25;;;8.00;82.00;;;;;;5068336;28;20107;-44
2022/04/03 12:32:01;;;;;;;1.27;0.20;;;8.10;82.80;;;;;;5064411;28;20055;-47
2022/04/03 12:34:28;;;;;;;;;;;8.20;80.10;;;;;;5067154;28;20052;-43
2022/04/03 12:36:55;;;;;;;1.27;0.32;;;8.30;77.90;;;;;;5078241;28;20385;-45
2022/04/03 12:39:32;;;;;;;0.45;0.22;;;8.60;75.40;;;;;;5073564;28;20037;-47
2022/04/03 12:42:23;;;;;;;5.32;0.40;;;9.00;70.10;;;;;;5066914;28;20141;-47
2022/04/03 12:44:51;;;;;;;2.75;0.30;;;9.20;67.20;;;;;;5060890;28;20413;-46
2022/04/03 12:47:38;;;;;;;2.80;0.30;;;9.40;68.20;;;;;;5060743;28;20389;-41
2022/04/03 12:50:05;;;;;;;1.88;0.50;;;9.40;67.40;;;;;;5056265;28;20036;-40
2022/04/03 12:52:38;;;;;;;1.67;0.35;;;9.40;69.10;;;;;;5055819;28;20498;-41
2022/04/03 12:55:04;;;;;;;;;;;9.50;68.00;;;;;;5059072;28;20530;-43
2022/04/03 13:00:18;;;;;;;1.23;0.30;;;10.40;63.50;;;;;;5064982;28;20517;-44
2022/04/03 13:02:45;;;;;;;1.77;0.22;;;10.40;62.90;;;;;;5062372;28;20060;-47
2022/04/03 13:05:15;;;;;;;0.68;0.28;;;10.20;61.90;;;;;;5058819;28;20066;-45
2022/04/03 13:07:43;;;;;;;2.08;0.43;;;10.00;62.30;;;;;;5058444;28;20040;-45